Time;durP1;ratioP1;P1;durP2;ratioP2;P2;SDS_P1;SDS_P2;PMS_P1;PMS_P2;Temp;Humidity;BMP_temperature;BMP_pressure;BME280_temperature;BME280_humidity;BME280_pressure;Samples;Min_cycle;Max_cycle;Signal;HPM_P1;HPM_P2
2023/12/16 00:01:17;;;;;;;1999.90;999.90;;;6.20;99.90;;;;;;5096586;28;20029;-75
2023/12/16 00:03:42;;;;;;;1999.90;999.90;;;6.20;99.90;;;;;;5096186;28;20033;-75
2023/12/16 00:06:08;;;;;;;1999.90;999.90;;;6.20;99.90;;;;;;5096468;28;20040;-74
2023/12/16 00:08:34;;;;;;;1999.90;999.90;;;6.20;99.90;;;;;;5096429;28;20041;-75
2023/12/16 00:10:59;;;;;;;1999.90;999.90;;;6.10;99.90;;;;;;5095055;28;20035;-75
2023/12/16 00:13:25;;;;;;;1999.90;999.90;;;6.20;99.90;;;;;;5097249;28;20029;-76
2023/12/16 00:15:50;;;;;;;1999.90;999.90;;;6.10;99.90;;;;;;5095040;28;20431;-74
2023/12/16 00:18:16;;;;;;;1999.90;999.90;;;6.10;99.90;;;;;;5096077;28;20131;-74
2023/12/16 00:20:41;;;;;;;1999.90;999.90;;;6.20;99.90;;;;;;5096308;28;20071;-74
2023/12/16 00:23:07;;;;;;;1999.90;999.90;;;6.20;99.90;;;;;;5096194;28;20044;-74
2023/12/16 00:25:33;;;;;;;1999.90;999.90;;;6.20;99.90;;;;;;5096113;28;20020;-74
2023/12/16 00:27:58;;;;;;;1999.90;999.90;;;6.20;99.90;;;;;;5095976;28;20040;-74
2023/12/16 00:30:24;;;;;;;1999.90;999.90;;;6.20;99.90;;;;;;5094707;28;20394;-74
2023/12/16 00:32:49;;;;;;;1999.90;999.90;;;6.20;99.90;;;;;;5096138;28;20478;-74
2023/12/16 00:35:15;;;;;;;1999.90;999.90;;;6.30;99.90;;;;;;5095715;28;20390;-75
2023/12/16 00:37:40;;;;;;;1999.90;999.90;;;6.30;99.90;;;;;;5095439;28;20393;-74
2023/12/16 00:40:07;;;;;;;1999.90;999.90;;;6.30;99.90;;;;;;5096311;28;20043;-75
2023/12/16 00:42:33;;;;;;;1999.90;999.90;;;6.30;99.90;;;;;;5096048;28;20108;-75
2023/12/16 00:44:58;;;;;;;1999.90;999.90;;;6.30;99.90;;;;;;5095681;28;20107;-75
2023/12/16 00:47:25;;;;;;;1999.90;999.90;;;6.30;99.90;;;;;;5095748;28;20036;-75
2023/12/16 00:49:51;;;;;;;1999.90;999.90;;;6.20;99.90;;;;;;5094810;28;20033;-75
2023/12/16 00:52:17;;;;;;;1999.90;999.90;;;6.20;99.90;;;;;;5094444;28;20497;-75
2023/12/16 00:54:42;;;;;;;1999.90;999.90;;;6.20;99.90;;;;;;5095803;28;20067;-75
2023/12/16 00:57:08;;;;;;;1999.90;999.90;;;6.10;99.90;;;;;;5093906;28;20037;-76
2023/12/16 00:59:33;;;;;;;1999.90;999.90;;;6.10;99.90;;;;;;5095819;28;20470;-75
2023/12/16 01:01:59;;;;;;;1999.90;999.90;;;6.10;99.90;;;;;;5095773;28;20540;-74
2023/12/16 01:04:25;;;;;;;1999.90;999.90;;;6.10;99.90;;;;;;5095395;28;20027;-75
2023/12/16 01:06:51;;;;;;;1999.90;999.90;;;6.00;99.90;;;;;;5095638;28;20093;-76
2023/12/16 01:09:16;;;;;;;1999.90;999.90;;;6.00;99.90;;;;;;5095650;28;20367;-76
2023/12/16 01:11:42;;;;;;;1999.90;999.90;;;6.10;99.90;;;;;;5095555;28;20037;-75
2023/12/16 01:14:10;;;;;;;1999.90;999.90;;;6.00;99.90;;;;;;5095170;28;20029;-76
2023/12/16 01:16:36;;;;;;;1999.90;999.90;;;6.10;99.90;;;;;;5095365;28;20059;-76
2023/12/16 01:19:01;;;;;;;1999.90;999.90;;;6.10;99.90;;;;;;5095366;28;20111;-76
2023/12/16 01:21:27;;;;;;;1999.90;999.90;;;6.10;99.90;;;;;;5095198;28;20368;-76
2023/12/16 01:23:53;;;;;;;1999.90;999.90;;;6.10;99.90;;;;;;5094976;28;20033;-75
2023/12/16 01:26:18;;;;;;;1999.90;999.90;;;6.10;99.90;;;;;;5095220;28;20028;-76
2023/12/16 01:28:44;;;;;;;1999.90;999.90;;;6.00;99.90;;;;;;5095009;28;20044;-76
2023/12/16 01:31:09;;;;;;;1999.90;999.90;;;6.00;99.90;;;;;;5093640;28;20020;-75
2023/12/16 01:33:35;;;;;;;1999.90;999.90;;;6.00;99.90;;;;;;5094901;28;20038;-76
2023/12/16 01:36:01;;;;;;;1999.90;999.90;;;6.00;99.90;;;;;;5094635;28;20119;-75
2023/12/16 01:38:27;;;;;;;1999.90;999.90;;;6.00;99.90;;;;;;5095405;28;20040;-75
2023/12/16 01:40:53;;;;;;;1999.90;999.90;;;6.00;99.90;;;;;;5095160;28;20033;-75
2023/12/16 01:43:18;;;;;;;1999.90;999.90;;;5.90;99.90;;;;;;5095219;28;20063;-75
2023/12/16 01:45:44;;;;;;;1999.90;999.90;;;6.00;99.90;;;;;;5094573;28;20033;-76
2023/12/16 01:48:12;;;;;;;1999.90;999.90;;;6.00;99.90;;;;;;5094959;28;20537;-76
2023/12/16 01:50:38;;;;;;;1999.90;999.90;;;6.00;99.90;;;;;;5094820;28;20440;-76
2023/12/16 01:53:05;;;;;;;1999.90;999.90;;;6.00;99.90;;;;;;5095177;28;20048;-75
2023/12/16 01:55:31;;;;;;;1999.90;999.90;;;6.10;99.90;;;;;;5094424;28;20029;-76
2023/12/16 01:57:57;;;;;;;1999.90;999.90;;;6.10;99.90;;;;;;5094599;28;20040;-76
2023/12/16 02:00:29;;;;;;;1999.90;999.90;;;6.10;99.90;;;;;;5093453;28;20095;-76
2023/12/16 02:02:55;;;;;;;1999.90;999.90;;;6.10;99.90;;;;;;5100963;28;20086;-76
2023/12/16 02:05:20;;;;;;;1999.90;999.90;;;6.10;99.90;;;;;;5101191;28;20040;-75
2023/12/16 02:07:46;;;;;;;1999.90;999.90;;;6.10;99.90;;;;;;5099582;28;20632;-76
2023/12/16 02:10:11;;;;;;;1999.90;999.90;;;6.10;99.90;;;;;;5101764;28;20097;-75
2023/12/16 02:12:37;;;;;;;1999.90;999.90;;;6.10;99.90;;;;;;5101528;28;20112;-75
2023/12/16 02:15:03;;;;;;;1999.90;999.90;;;6.20;99.90;;;;;;5101192;28;20074;-76
2023/12/16 02:17:28;;;;;;;1999.90;999.90;;;6.20;99.90;;;;;;5101121;28;20077;-75
2023/12/16 02:19:54;;;;;;;1999.90;999.90;;;6.20;99.90;;;;;;5101063;28;20033;-76
2023/12/16 02:22:22;;;;;;;1999.90;999.90;;;6.20;99.90;;;;;;5101457;28;20032;-75
2023/12/16 02:24:48;;;;;;;1999.90;999.90;;;6.20;99.90;;;;;;5100948;28;20058;-76
2023/12/16 02:27:14;;;;;;;1999.90;999.90;;;6.20;99.90;;;;;;5101214;28;20115;-76
2023/12/16 02:29:39;;;;;;;1999.90;999.90;;;6.30;99.90;;;;;;5101676;28;20104;-76
2023/12/16 02:32:06;;;;;;;1999.90;999.90;;;6.20;99.90;;;;;;5101338;28;20028;-75
2023/12/16 02:34:31;;;;;;;1999.90;999.90;;;6.30;99.90;;;;;;5100875;28;20035;-76
2023/12/16 02:36:57;;;;;;;1999.90;999.90;;;6.30;99.90;;;;;;5100610;28;20032;-75
2023/12/16 02:39:22;;;;;;;1999.90;999.90;;;6.20;99.90;;;;;;5101359;28;20111;-76
2023/12/16 02:41:48;;;;;;;1999.90;999.90;;;6.20;99.90;;;;;;5101321;28;20024;-76
2023/12/16 02:44:14;;;;;;;1999.90;999.90;;;6.20;99.90;;;;;;5100825;28;20036;-75
2023/12/16 02:46:39;;;;;;;1999.90;999.90;;;6.30;99.90;;;;;;5100600;28;20501;-76
2023/12/16 02:49:05;;;;;;;1999.90;999.90;;;6.30;99.90;;;;;;5098896;28;20129;-76
2023/12/16 02:51:30;;;;;;;1999.90;999.90;;;6.30;99.90;;;;;;5101250;28;20029;-75
2023/12/16 02:53:56;;;;;;;1999.90;999.90;;;6.20;99.90;;;;;;5100858;28;20498;-76
2023/12/16 02:56:22;;;;;;;1999.90;999.90;;;6.20;99.90;;;;;;5100783;28;20024;-76
2023/12/16 02:58:48;;;;;;;1999.90;999.90;;;6.20;99.90;;;;;;5100917;28;20483;-75
2023/12/16 03:01:15;;;;;;;1999.90;999.90;;;6.10;99.90;;;;;;5100884;28;20063;-76
2023/12/16 03:03:40;;;;;;;1999.90;999.90;;;6.20;99.90;;;;;;5100720;28;20090;-76
2023/12/16 03:06:07;;;;;;;1999.90;999.90;;;6.20;99.90;;;;;;5100712;28;20428;-76
2023/12/16 03:08:34;;;;;;;1999.90;999.90;;;6.20;99.90;;;;;;5101007;28;20090;-76
2023/12/16 03:11:00;;;;;;;1999.90;999.90;;;6.20;99.90;;;;;;5100887;28;20024;-76
2023/12/16 03:13:26;;;;;;;1999.90;999.90;;;6.10;99.90;;;;;;5097888;28;20040;-76
2023/12/16 03:15:52;;;;;;;1999.90;999.90;;;6.10;99.90;;;;;;5096791;28;20033;-76
2023/12/16 03:18:17;;;;;;;1999.90;999.90;;;6.10;99.90;;;;;;5097143;28;20043;-75
2023/12/16 03:20:43;;;;;;;1999.90;999.90;;;6.10;99.90;;;;;;5096918;28;20025;-75
2023/12/16 03:23:08;;;;;;;1999.90;999.90;;;6.10;99.90;;;;;;5097701;28;20040;-75
2023/12/16 03:25:37;;;;;;;1999.90;999.90;;;6.10;99.90;;;;;;5097088;28;20042;-76
2023/12/16 03:28:03;;;;;;;1999.90;999.90;;;6.10;99.90;;;;;;5095804;28;20033;-76
2023/12/16 03:30:29;;;;;;;1999.90;999.90;;;6.10;99.90;;;;;;5097065;28;20046;-75
2023/12/16 03:32:54;;;;;;;1999.90;999.90;;;6.00;99.90;;;;;;5097087;28;20094;-76
2023/12/16 03:35:21;;;;;;;1999.90;999.90;;;6.10;99.90;;;;;;5095570;28;20429;-75
2023/12/16 03:37:47;;;;;;;1999.90;999.90;;;6.10;99.90;;;;;;5096836;28;20127;-75
2023/12/16 03:40:13;;;;;;;1999.90;999.90;;;6.00;99.90;;;;;;5097058;28;20032;-76
2023/12/16 03:42:38;;;;;;;1999.90;999.90;;;6.00;99.90;;;;;;5097149;28;20119;-75
2023/12/16 03:45:04;;;;;;;1999.90;999.90;;;6.00;99.90;;;;;;5096391;28;20028;-76
2023/12/16 03:47:31;;;;;;;1999.90;999.90;;;6.00;99.90;;;;;;5095190;28;20040;-75
2023/12/16 03:49:57;;;;;;;1999.90;999.90;;;6.10;99.90;;;;;;5096862;28;20029;-75
2023/12/16 03:52:22;;;;;;;1999.90;999.90;;;6.00;99.90;;;;;;5097020;28;20032;-76
2023/12/16 03:54:48;;;;;;;1999.90;999.90;;;6.00;99.90;;;;;;5095055;28;20039;-76
2023/12/16 03:57:13;;;;;;;1999.90;999.90;;;6.10;99.90;;;;;;5096533;28;20041;-75
2023/12/16 03:59:39;;;;;;;1999.90;999.90;;;6.10;99.90;;;;;;5095334;28;20099;-75
2023/12/16 04:02:04;;;;;;;1999.90;999.90;;;6.10;99.90;;;;;;5095167;28;20040;-76
2023/12/16 04:04:32;;;;;;;1999.90;999.90;;;6.10;99.90;;;;;;5096572;28;20032;-75
2023/12/16 04:07:00;;;;;;;1999.90;999.90;;;6.10;99.90;;;;;;5096440;28;20028;-75
2023/12/16 04:09:29;;;;;;;1999.90;999.90;;;6.10;99.90;;;;;;5096523;28;20417;-76
2023/12/16 04:11:54;;;;;;;1999.90;999.90;;;6.10;99.90;;;;;;5096471;28;20076;-76
2023/12/16 04:14:20;;;;;;;1999.90;999.90;;;6.10;99.90;;;;;;5094417;28;20036;-76
2023/12/16 04:16:46;;;;;;;1999.90;999.90;;;6.10;99.90;;;;;;5096636;28;20386;-76
2023/12/16 04:19:13;;;;;;;1999.90;999.90;;;6.10;99.90;;;;;;5096377;28;20040;-76
2023/12/16 04:21:38;;;;;;;1999.90;999.90;;;6.10;99.90;;;;;;5096422;28;20124;-76
2023/12/16 04:24:04;;;;;;;1999.90;999.90;;;6.10;99.90;;;;;;5096359;28;20028;-75
2023/12/16 04:26:30;;;;;;;1999.90;999.90;;;6.20;99.90;;;;;;5095964;28;20064;-75
2023/12/16 04:28:55;;;;;;;1999.90;999.90;;;6.10;99.90;;;;;;5094799;28;20499;-76
2023/12/16 04:31:21;;;;;;;1999.90;999.90;;;6.20;99.90;;;;;;5096399;28;20036;-75
2023/12/16 04:33:48;;;;;;;1999.90;999.90;;;6.20;99.90;;;;;;5096100;28;20036;-75
2023/12/16 04:36:14;;;;;;;1999.90;999.90;;;6.10;99.90;;;;;;5096266;28;20406;-75
2023/12/16 04:38:40;;;;;;;1999.90;999.90;;;6.10;99.90;;;;;;5096174;28;20036;-76
2023/12/16 04:41:06;;;;;;;1999.90;999.90;;;6.10;99.90;;;;;;5094464;28;20032;-76
2023/12/16 04:43:32;;;;;;;1999.90;999.90;;;6.00;99.90;;;;;;5096035;28;20037;-75
2023/12/16 04:46:00;;;;;;;1999.90;999.90;;;6.00;99.90;;;;;;5095567;28;20043;-76
2023/12/16 04:48:25;;;;;;;1999.90;999.90;;;6.00;99.90;;;;;;5096055;28;20818;-76
2023/12/16 04:50:51;;;;;;;1999.90;999.90;;;6.00;99.90;;;;;;5095583;28;20040;-75
2023/12/16 04:53:17;;;;;;;1999.90;999.90;;;6.10;99.90;;;;;;5095878;28;20029;-75
2023/12/16 04:55:42;;;;;;;1999.90;999.90;;;6.10;99.90;;;;;;5095587;28;20031;-74
2023/12/16 04:58:08;;;;;;;1999.90;999.90;;;6.10;99.90;;;;;;5095656;28;20036;-75
2023/12/16 05:00:33;;;;;;;1999.90;999.90;;;6.10;99.90;;;;;;5095803;28;20039;-76
2023/12/16 05:02:59;;;;;;;1999.90;999.90;;;6.10;99.90;;;;;;5096057;28;20079;-76
2023/12/16 05:05:24;;;;;;;1999.90;999.90;;;6.10;99.90;;;;;;5095632;28;20029;-76
2023/12/16 05:07:50;;;;;;;1999.90;999.90;;;6.20;99.90;;;;;;5095482;28;20028;-76
2023/12/16 05:10:15;;;;;;;1999.90;999.90;;;6.20;99.90;;;;;;5095666;28;20044;-75
2023/12/16 05:12:41;;;;;;;1999.90;999.90;;;6.20;99.90;;;;;;5095538;28;20533;-76
2023/12/16 05:15:07;;;;;;;1999.90;999.90;;;6.20;99.90;;;;;;5095467;28;20371;-75
2023/12/16 05:17:33;;;;;;;1999.90;999.90;;;6.20;99.90;;;;;;5093858;28;20072;-76
2023/12/16 05:19:58;;;;;;;1999.90;999.90;;;6.20;99.90;;;;;;5095679;28;20039;-75
2023/12/16 05:22:24;;;;;;;1999.90;999.90;;;6.20;99.90;;;;;;5095973;28;20035;-76
2023/12/16 05:24:50;;;;;;;1999.90;999.90;;;6.20;99.90;;;;;;5095255;28;20036;-75
2023/12/16 05:27:15;;;;;;;1999.90;999.90;;;6.20;99.90;;;;;;5095299;28;20074;-75
2023/12/16 05:29:41;;;;;;;1999.90;999.90;;;6.20;99.90;;;;;;5095298;28;20470;-75
2023/12/16 05:32:06;;;;;;;1999.90;999.90;;;6.20;99.90;;;;;;5093702;28;20044;-75
2023/12/16 05:34:32;;;;;;;1999.90;999.90;;;6.20;99.90;;;;;;5095031;28;20386;-76
2023/12/16 05:36:58;;;;;;;1999.90;999.90;;;6.20;99.90;;;;;;5094054;28;20036;-75
2023/12/16 05:39:24;;;;;;;1999.90;999.90;;;6.20;99.90;;;;;;5095267;28;20044;-75
2023/12/16 05:41:49;;;;;;;1999.90;999.90;;;6.20;99.90;;;;;;5094988;28;20037;-75
2023/12/16 05:44:15;;;;;;;1999.90;999.90;;;6.20;99.90;;;;;;5095002;28;20063;-75
2023/12/16 05:46:41;;;;;;;1999.90;999.90;;;6.20;99.90;;;;;;5094640;28;20044;-75
2023/12/16 05:49:06;;;;;;;1999.90;999.90;;;6.20;99.90;;;;;;5093670;28;20033;-75
2023/12/16 05:51:39;;;;;;;1999.90;999.90;;;6.20;99.90;;;;;;5095055;28;20040;-75
2023/12/16 05:54:07;;;;;;;1999.90;999.90;;;6.20;99.90;;;;;;5093103;28;20133;-75
2023/12/16 05:56:33;;;;;;;1999.90;999.90;;;6.20;99.90;;;;;;5094625;28;20028;-75
2023/12/16 05:58:58;;;;;;;1999.90;999.90;;;6.20;99.90;;;;;;5094853;28;20052;-75
2023/12/16 06:01:24;;;;;;;1999.90;999.90;;;6.30;99.90;;;;;;5094982;28;20102;-75
2023/12/16 06:03:49;;;;;;;1999.90;999.90;;;6.30;99.90;;;;;;5094653;28;20389;-75
2023/12/16 06:06:15;;;;;;;1999.90;999.90;;;6.30;99.90;;;;;;5094770;28;20025;-76
2023/12/16 06:08:41;;;;;;;1999.90;999.90;;;6.30;99.90;;;;;;5094577;28;20044;-75
2023/12/16 06:11:12;;;;;;;1999.90;999.90;;;6.30;99.90;;;;;;5094619;28;20059;-75
2023/12/16 06:13:38;;;;;;;1999.90;999.90;;;6.30;99.90;;;;;;5094579;28;20048;-74
2023/12/16 06:16:04;;;;;;;1999.90;999.90;;;6.40;99.90;;;;;;5094838;28;20044;-75
2023/12/16 06:18:29;;;;;;;1999.90;999.90;;;6.30;99.90;;;;;;5094300;28;20511;-74
2023/12/16 06:20:55;;;;;;;1999.90;999.90;;;6.30;99.90;;;;;;5094580;28;20028;-75
2023/12/16 06:23:20;;;;;;;1999.90;999.90;;;6.30;99.90;;;;;;5094789;28;20033;-75
2023/12/16 06:25:46;;;;;;;1999.90;999.90;;;6.30;99.90;;;;;;5094635;28;20032;-75
2023/12/16 06:28:11;;;;;;;1999.90;999.90;;;6.30;99.90;;;;;;5093218;28;20041;-75
2023/12/16 06:30:38;;;;;;;1999.90;999.90;;;6.30;99.90;;;;;;5094766;28;20045;-75
2023/12/16 06:33:03;;;;;;;1999.90;999.90;;;6.30;99.90;;;;;;5094545;28;20446;-75
2023/12/16 06:35:29;;;;;;;1999.90;999.90;;;6.20;99.90;;;;;;5094502;28;20071;-78
2023/12/16 06:37:54;;;;;;;1999.90;999.90;;;6.20;99.90;;;;;;5094162;28;20487;-75
2023/12/16 06:40:20;;;;;;;1999.90;999.90;;;6.20;99.90;;;;;;5094268;28;20033;-79
2023/12/16 06:42:45;;;;;;;1999.90;999.90;;;6.20;99.90;;;;;;5094561;28;20037;-75
2023/12/16 06:45:11;;;;;;;1999.90;999.90;;;6.20;99.90;;;;;;5094942;28;20044;-75
2023/12/16 06:47:37;;;;;;;1999.90;999.90;;;6.20;99.90;;;;;;5092747;28;20044;-76
2023/12/16 06:50:03;;;;;;;1999.90;999.90;;;6.20;99.90;;;;;;5097445;28;20126;-75
2023/12/16 06:52:29;;;;;;;1999.90;999.90;;;6.20;99.90;;;;;;5097703;28;20797;-76
2023/12/16 06:54:54;;;;;;;1999.90;999.90;;;6.20;99.90;;;;;;5096187;28;20034;-75
2023/12/16 06:57:20;;;;;;;1999.90;999.90;;;6.20;99.90;;;;;;5095852;28;20036;-76
2023/12/16 06:59:45;;;;;;;1999.90;999.90;;;6.20;99.90;;;;;;5097666;28;20035;-75
2023/12/16 07:02:11;;;;;;;1999.90;999.90;;;6.20;99.90;;;;;;5097658;28;20048;-75
2023/12/16 07:04:36;;;;;;;1999.90;999.90;;;6.20;99.90;;;;;;5097136;28;20579;-75
2023/12/16 07:07:02;;;;;;;1999.90;999.90;;;6.20;99.90;;;;;;5097486;28;20032;-75
2023/12/16 07:09:28;;;;;;;1999.90;999.90;;;6.10;99.90;;;;;;5097296;28;20040;-75
2023/12/16 07:11:53;;;;;;;1999.90;999.90;;;6.10;99.90;;;;;;5097607;28;20033;-75
2023/12/16 07:14:19;;;;;;;1999.90;999.90;;;6.20;99.90;;;;;;5096855;28;20032;-75
2023/12/16 07:16:44;;;;;;;1999.90;999.90;;;6.10;99.90;;;;;;5097234;28;20558;-75
2023/12/16 07:19:10;;;;;;;1999.90;999.90;;;6.10;99.90;;;;;;5097200;28;20048;-75
2023/12/16 07:21:41;;;;;;;1999.90;999.90;;;6.10;99.90;;;;;;5097373;28;20032;-75
2023/12/16 07:24:06;;;;;;;1999.90;999.90;;;6.10;99.90;;;;;;5097734;28;20024;-75
2023/12/16 07:26:32;;;;;;;1999.90;999.90;;;6.10;99.90;;;;;;5097430;28;20484;-76
2023/12/16 07:28:57;;;;;;;1999.90;999.90;;;6.10;99.90;;;;;;5095726;28;20032;-76
2023/12/16 07:31:23;;;;;;;1999.90;999.90;;;6.10;99.90;;;;;;5099156;28;20033;-75
2023/12/16 07:33:49;;;;;;;1999.90;999.90;;;6.10;99.90;;;;;;5098642;28;20393;-75
2023/12/16 07:36:15;;;;;;;1999.90;999.90;;;6.00;99.90;;;;;;5096582;28;20048;-76
2023/12/16 07:38:41;;;;;;;1999.90;999.90;;;6.00;99.90;;;;;;5098219;28;20033;-76
2023/12/16 07:41:07;;;;;;;1999.90;999.90;;;5.90;99.90;;;;;;5099468;28;20028;-77
2023/12/16 07:43:32;;;;;;;1999.90;999.90;;;5.80;99.90;;;;;;5096702;28;20032;-78
2023/12/16 07:45:58;;;;;;;1999.90;999.90;;;5.80;99.90;;;;;;5097301;28;20032;-75
2023/12/16 07:48:24;;;;;;;1999.90;999.90;;;5.80;99.90;;;;;;5098343;28;20036;-76
2023/12/16 07:50:53;;;;;;;1999.90;999.90;;;5.70;99.90;;;;;;5097611;28;20494;-78
2023/12/16 07:53:21;;;;;;;1999.90;999.90;;;5.80;99.90;;;;;;5097812;28;20040;-78
2023/12/16 07:55:47;;;;;;;1999.90;999.90;;;5.70;99.90;;;;;;5096844;28;20034;-76
2023/12/16 07:58:14;;;;;;;1999.90;999.90;;;5.70;99.90;;;;;;5096956;28;20037;-76
2023/12/16 08:00:40;;;;;;;1999.90;999.90;;;5.70;99.90;;;;;;5099770;28;20021;-78
2023/12/16 08:03:05;;;;;;;1999.90;999.90;;;5.70;99.90;;;;;;5097273;28;20040;-75
2023/12/16 08:05:31;;;;;;;1999.90;999.90;;;5.80;99.90;;;;;;5096474;28;20029;-76
2023/12/16 08:07:57;;;;;;;1999.90;999.90;;;5.80;99.90;;;;;;5096291;28;20450;-75
2023/12/16 08:10:22;;;;;;;1999.90;999.90;;;5.80;99.90;;;;;;5096916;28;20025;-76
2023/12/16 08:12:48;;;;;;;1999.90;999.90;;;5.90;99.90;;;;;;5096964;28;20033;-80
2023/12/16 08:15:13;;;;;;;1999.90;999.90;;;5.90;99.90;;;;;;5096968;28;20041;-75
2023/12/16 08:17:39;;;;;;;1999.90;999.90;;;6.10;99.90;;;;;;5096093;28;20047;-76
2023/12/16 08:20:05;;;;;;;1999.90;999.90;;;6.10;99.90;;;;;;5095247;28;20064;-76
2023/12/16 08:22:32;;;;;;;1999.90;999.90;;;6.10;99.90;;;;;;5095201;28;20486;-76
2023/12/16 08:24:58;;;;;;;1999.90;999.90;;;6.10;99.90;;;;;;5098245;28;20600;-78
2023/12/16 08:27:23;;;;;;;1999.90;999.90;;;6.20;99.90;;;;;;5099277;28;20037;-76
2023/12/16 08:29:49;;;;;;;1999.90;999.90;;;6.20;99.90;;;;;;5094899;28;20024;-76
2023/12/16 08:32:15;;;;;;;1999.90;999.90;;;6.30;99.90;;;;;;5096678;28;20067;-77
2023/12/16 08:34:41;;;;;;;1999.90;999.90;;;6.30;99.90;;;;;;5096539;28;20035;-77
2023/12/16 08:37:07;;;;;;;1999.90;999.90;;;6.40;99.90;;;;;;5095873;28;20407;-76
2023/12/16 08:39:32;;;;;;;1999.90;999.90;;;6.40;99.90;;;;;;5095369;28;20040;-77
2023/12/16 08:41:58;;;;;;;1999.90;999.90;;;6.40;99.90;;;;;;5097726;28;20037;-80
2023/12/16 08:44:24;;;;;;;1999.90;999.90;;;6.40;99.90;;;;;;5096632;28;20047;-77
2023/12/16 08:46:51;;;;;;;1999.90;999.90;;;6.40;99.90;;;;;;5099479;28;20040;-83
2023/12/16 08:49:16;;;;;;;1999.90;999.90;;;6.50;99.90;;;;;;5080942;28;20068;-77
2023/12/16 08:51:42;;;;;;;1999.90;999.90;;;6.50;99.90;;;;;;5097322;28;20075;-77
2023/12/16 08:54:08;;;;;;;1999.90;999.90;;;6.50;99.90;;;;;;5096554;28;20410;-77
2023/12/16 08:56:33;;;;;;;1999.90;999.90;;;6.40;99.90;;;;;;5099463;28;20036;-79
2023/12/16 08:58:59;;;;;;;1999.90;999.90;;;6.40;99.90;;;;;;5097876;28;20094;-77
2023/12/16 09:01:24;;;;;;;1999.90;999.90;;;6.50;99.90;;;;;;5098404;28;20036;-78
2023/12/16 09:03:50;;;;;;;1999.90;999.90;;;6.50;99.90;;;;;;5094983;28;20524;-77
2023/12/16 09:06:15;;;;;;;1999.90;999.90;;;6.60;99.90;;;;;;5095048;28;20088;-77
2023/12/16 09:08:41;;;;;;;1999.90;999.90;;;6.60;99.90;;;;;;5097102;28;20533;-77
2023/12/16 09:11:06;;;;;;;1999.90;999.90;;;6.70;99.90;;;;;;5095706;28;20403;-78
2023/12/16 09:13:32;;;;;;;1999.90;999.90;;;6.80;99.90;;;;;;5097736;28;20394;-79
2023/12/16 09:15:58;;;;;;;1999.90;999.90;;;6.80;99.90;;;;;;5097787;28;20058;-78
2023/12/16 09:18:23;;;;;;;1999.90;999.90;;;6.80;99.90;;;;;;5096958;28;20098;-77
2023/12/16 09:20:49;;;;;;;1999.90;999.90;;;6.90;99.90;;;;;;5095885;28;20032;-77
2023/12/16 09:23:16;;;;;;;1999.90;999.90;;;6.90;99.90;;;;;;5103089;28;20111;-77
2023/12/16 09:25:41;;;;;;;1999.90;999.90;;;7.00;99.90;;;;;;5114686;28;20165;-76
2023/12/16 09:28:07;;;;;;;1999.90;999.90;;;7.10;99.90;;;;;;5115055;28;20071;-75
2023/12/16 09:30:32;;;;;;;1999.90;999.90;;;7.20;99.90;;;;;;5115096;28;20024;-75
2023/12/16 09:32:58;;;;;;;1999.90;999.90;;;7.30;99.90;;;;;;5114184;28;20371;-76
2023/12/16 09:35:24;;;;;;;1999.90;999.90;;;7.20;99.90;;;;;;5115998;27;20495;-77
2023/12/16 09:37:49;;;;;;;1999.90;999.90;;;7.30;99.90;;;;;;5108726;28;20040;-76
2023/12/16 09:40:16;;;;;;;1999.90;999.90;;;7.30;99.90;;;;;;5095213;28;20028;-75
2023/12/16 09:42:44;;;;;;;1999.90;999.90;;;7.30;99.90;;;;;;5095552;28;20098;-76
2023/12/16 09:45:14;;;;;;;1999.90;999.90;;;7.40;99.90;;;;;;5095263;28;20074;-77
2023/12/16 09:47:39;;;;;;;1999.90;999.90;;;7.50;99.90;;;;;;5094542;28;20029;-76
2023/12/16 09:50:07;;;;;;;1999.90;999.90;;;7.60;99.90;;;;;;5095296;28;20363;-77
2023/12/16 09:52:33;;;;;;;1999.90;999.90;;;7.60;99.90;;;;;;5095004;28;20044;-76
2023/12/16 09:54:59;;;;;;;1999.90;999.90;;;7.70;99.90;;;;;;5095048;28;20028;-76
2023/12/16 09:57:26;;;;;;;1999.90;999.90;;;7.70;99.90;;;;;;5095190;28;20135;-76
2023/12/16 09:59:52;;;;;;;1999.90;999.90;;;7.80;99.90;;;;;;5095170;28;20025;-76
2023/12/16 10:02:26;;;;;;;1999.90;999.90;;;7.80;99.90;;;;;;5095070;28;20040;-77
2023/12/16 10:04:56;;;;;;;1999.90;999.90;;;7.80;99.90;;;;;;5094955;28;20029;-76
2023/12/16 10:07:22;;;;;;;1999.90;999.90;;;7.80;99.90;;;;;;5094372;28;20036;-76
2023/12/16 10:09:48;;;;;;;1999.90;999.90;;;7.70;99.90;;;;;;5093586;28;20402;-77
2023/12/16 10:12:13;;;;;;;1999.90;999.90;;;7.80;99.90;;;;;;5094959;28;20037;-76
2023/12/16 10:14:50;;;;;;;1999.90;999.90;;;7.90;99.90;;;;;;5092708;28;20090;-79
2023/12/16 10:17:16;;;;;;;1999.90;999.90;;;7.90;99.90;;;;;;5094332;28;20033;-77
2023/12/16 10:19:44;;;;;;;1999.90;999.90;;;8.00;99.90;;;;;;5093050;28;20039;-75
2023/12/16 10:22:12;;;;;;;1999.90;999.90;;;8.00;99.90;;;;;;5110559;27;20594;-75
2023/12/16 10:24:37;;;;;;;1999.90;999.90;;;8.10;99.90;;;;;;5098379;28;20494;-79
2023/12/16 10:27:04;;;;;;;1999.90;999.90;;;8.10;99.90;;;;;;5099719;28;20029;-78
2023/12/16 10:29:32;;;;;;;1999.90;999.90;;;8.20;99.90;;;;;;5098893;28;20483;-77
2023/12/16 10:31:58;;;;;;;1999.90;999.90;;;8.30;99.90;;;;;;5113722;28;20040;-77
2023/12/16 10:34:26;;;;;;;1999.90;999.90;;;8.20;99.90;;;;;;5098025;28;20032;-77
2023/12/16 10:36:52;;;;;;;1999.90;999.90;;;8.20;99.90;;;;;;5097920;28;20089;-77
2023/12/16 10:39:17;;;;;;;1999.90;999.90;;;8.20;99.90;;;;;;5096654;28;20090;-77
2023/12/16 10:41:43;;;;;;;1999.90;999.90;;;8.20;99.90;;;;;;5097873;28;20029;-77
2023/12/16 10:44:09;;;;;;;1999.90;999.90;;;8.30;99.90;;;;;;5097744;28;20159;-77
2023/12/16 10:46:36;;;;;;;1999.90;999.90;;;8.30;99.90;;;;;;5097651;28;20111;-77
2023/12/16 10:49:04;;;;;;;1999.90;999.90;;;8.40;99.90;;;;;;5098139;28;20125;-77
2023/12/16 10:51:35;;;;;;;1999.90;999.90;;;8.40;99.90;;;;;;5097920;28;20024;-77
2023/12/16 10:54:09;;;;;;;1999.90;999.90;;;8.40;99.90;;;;;;5098272;28;20044;-75
2023/12/16 10:56:41;;;;;;;1999.90;999.90;;;8.50;99.90;;;;;;5098152;28;20033;-81
2023/12/16 10:59:21;;;;;;;1999.90;999.90;;;8.40;99.90;;;;;;5098503;28;20028;-78
2023/12/16 11:01:56;;;;;;;1999.90;999.90;;;8.50;99.90;;;;;;5098984;28;20090;-77
2023/12/16 11:04:32;;;;;;;1999.90;999.90;;;8.50;99.90;;;;;;5113534;27;20036;-76
2023/12/16 11:07:10;;;;;;;1999.90;999.90;;;8.50;99.90;;;;;;5097854;28;20537;-77
2023/12/16 11:09:36;;;;;;;1999.90;999.90;;;8.40;99.90;;;;;;5098625;28;20517;-75
2023/12/16 11:12:04;;;;;;;1999.90;999.90;;;8.40;99.90;;;;;;5098319;28;20130;-77
2023/12/16 11:14:33;;;;;;;1999.90;999.90;;;8.40;99.90;;;;;;5098109;28;20577;-75
2023/12/16 11:16:59;;;;;;;1999.90;999.90;;;8.40;99.90;;;;;;5113182;28;20079;-78
2023/12/16 11:19:42;;;;;;;1999.90;999.90;;;8.40;99.90;;;;;;5098695;28;20040;-78
2023/12/16 11:22:10;;;;;;;1999.90;999.90;;;8.30;99.90;;;;;;5098432;28;20033;-75
2023/12/16 11:24:40;;;;;;;1999.90;999.90;;;8.40;99.90;;;;;;5099784;28;20039;-77
2023/12/16 11:27:07;;;;;;;1999.90;999.90;;;8.40;99.90;;;;;;5098051;28;20040;-78
2023/12/16 11:29:33;;;;;;;1999.90;999.90;;;8.40;99.90;;;;;;5096863;28;20032;-76
2023/12/16 11:32:00;;;;;;;1999.90;999.90;;;8.40;99.90;;;;;;5098582;28;20043;-79
2023/12/16 11:34:48;;;;;;;1999.90;999.90;;;8.50;99.90;;;;;;5097390;28;20115;-77
2023/12/16 11:37:14;;;;;;;1999.90;999.90;;;8.60;99.90;;;;;;5096150;28;20124;-76
2023/12/16 11:39:43;;;;;;;1999.90;999.90;;;8.60;99.90;;;;;;5100348;28;20205;-78
2023/12/16 11:42:10;;;;;;;1999.90;999.90;;;8.70;99.90;;;;;;5096204;28;20127;-76
2023/12/16 11:44:51;;;;;;;1999.90;999.90;;;8.70;99.90;;;;;;5097046;28;20028;-77
2023/12/16 11:47:20;;;;;;;1999.90;999.90;;;8.60;99.90;;;;;;5097434;28;20024;-75
2023/12/16 11:49:47;;;;;;;1999.90;999.90;;;8.60;99.90;;;;;;5097247;28;20486;-77
2023/12/16 11:52:15;;;;;;;1999.90;999.90;;;8.60;99.90;;;;;;5097357;28;20043;-75
2023/12/16 11:54:42;;;;;;;1999.90;999.90;;;8.50;99.90;;;;;;5096632;28;20083;-76
2023/12/16 11:57:08;;;;;;;1999.90;999.90;;;8.40;99.90;;;;;;5095621;28;20115;-78
2023/12/16 11:59:33;;;;;;;1999.90;999.90;;;8.30;99.90;;;;;;5099446;27;20121;-77
2023/12/16 12:01:59;;;;;;;1999.90;999.90;;;8.30;99.90;;;;;;5136693;27;20042;-78
2023/12/16 12:04:25;;;;;;;1999.90;999.90;;;8.10;99.90;;;;;;5138142;27;20042;-79